NCAR-RAP Real-Time Weather Data

Output produced by METARs form (10 April 2020  07:16 UTC)
found at http://weather.rap.ucar.edu/surface/
 
KACY 100654Z 28016G24KT 10SM CLR 06/M04 A2947 RMK AO2 PK WND 29026/0642 SLP979 T00611039